Time;durP1;ratioP1;P1;durP2;ratioP2;P2;SDS_P1;SDS_P2;PMS_P1;PMS_P2;Temp;Humidity;BMP_temperature;BMP_pressure;BME280_temperature;BME280_humidity;BME280_pressure;Samples;Min_cycle;Max_cycle;Signal;HPM_P1;HPM_P2
2023/07/03 00:02:14;;;;;;;14.98;7.10;;;;;;;;;;5019438;28;20038;-83
2023/07/03 00:04:45;;;;;;;18.85;8.02;;;;;;;;;;5002037;28;20062;-83
2023/07/03 00:07:14;;;;;;;16.67;7.88;;;;;;;;;;5000376;28;20037;-82
2023/07/03 00:09:41;;;;;;;17.75;7.80;;;;;;;;;;5005207;28;20103;-82
2023/07/03 00:12:09;;;;;;;16.75;7.63;;;;;;;;;;5006261;28;20072;-83
2023/07/03 00:14:37;;;;;;;15.85;7.82;;;;;;;;;;5006320;28;20105;-84
2023/07/03 00:17:04;;;;;;;18.75;7.93;;;;;;;;;;4987257;28;20052;-83
2023/07/03 00:19:30;;;;;;;15.02;7.50;;;;;;;;;;5021533;28;20065;-83
2023/07/03 00:22:00;;;;;;;20.40;8.38;;;;;;;;;;5002174;28;20519;-85
2023/07/03 00:24:51;;;;;;;21.30;8.43;;;;;;;;;;5017865;28;20058;-84
2023/07/03 00:27:18;;;;;;;25.05;8.30;;;;;;;;;;5018040;28;20106;-84
2023/07/03 00:29:46;;;;;;;20.73;8.15;;;;;;;;;;5019010;28;20041;-83
2023/07/03 00:32:21;;;;;;;19.48;8.05;;;;;;;;;;5018711;28;20045;-83
2023/07/03 00:34:51;;;;;;;19.77;8.18;;;;;;;;;;5036899;28;20056;-82
2023/07/03 00:37:18;;;;;;;20.27;7.80;;;;;;;;;;5018403;28;20060;-82
2023/07/03 00:39:47;;;;;;;20.27;7.88;;;;;;;;;;5013716;28;20041;-84
2023/07/03 00:42:15;;;;;;;16.95;7.85;;;;;;;;;;5012250;28;20045;-82
2023/07/03 00:44:42;;;;;;;19.33;8.25;;;;;;;;;;4996748;28;20069;-83
2023/07/03 00:47:10;;;;;;;19.48;8.27;;;;;;;;;;5009794;28;20038;-82
2023/07/03 00:49:36;;;;;;;20.83;7.55;;;;;;;;;;5003160;28;20521;-83
2023/07/03 00:52:04;;;;;;;16.73;7.57;;;;;;;;;;5014567;28;20100;-84
2023/07/03 00:54:31;;;;;;;18.45;7.80;;;;;;;;;;5019098;28;20384;-83
2023/07/03 00:56:58;;;;;;;19.55;7.75;;;;;;;;;;5003910;28;20052;-83
2023/07/03 00:59:24;;;;;;;19.67;7.93;;;;;;;;;;5020024;28;20084;-84
2023/07/03 01:02:03;;;;;;;19.85;8.63;;;;;;;;;;5001747;28;20110;-82
2023/07/03 01:04:45;;;;;;;18.60;8.10;;;;;;;;;;5001691;28;20064;-83
2023/07/03 01:07:16;;;;;;;16.58;7.70;;;;;;;;;;5000342;28;20080;-82
2023/07/03 01:09:45;;;;;;;19.58;8.27;;;;;;;;;;5010460;28;20053;-82
2023/07/03 01:12:11;;;;;;;18.15;8.07;;;;;;;;;;5011942;28;20097;-82
2023/07/03 01:14:39;;;;;;;19.45;8.35;;;;;;;;;;4993952;28;20050;-83
2023/07/03 01:17:09;;;;;;;17.80;7.60;;;;;;;;;;5008981;28;20041;-83
2023/07/03 01:19:38;;;;;;;17.45;8.25;;;;;;;;;;5009406;28;20046;-82
2023/07/03 01:22:24;;;;;;;16.77;7.75;;;;;;;;;;5011073;28;20140;-83
2023/07/03 01:24:51;;;;;;;17.58;8.10;;;;;;;;;;5013607;28;20050;-82
2023/07/03 01:27:20;;;;;;;18.15;8.55;;;;;;;;;;5012226;28;20048;-84
2023/07/03 01:29:49;;;;;;;22.35;8.30;;;;;;;;;;5003296;28;20038;-82
2023/07/03 01:32:19;;;;;;;20.58;8.15;;;;;;;;;;5011684;28;20042;-82
2023/07/03 01:34:48;;;;;;;17.80;8.43;;;;;;;;;;5014145;28;20052;-82
2023/07/03 01:37:16;;;;;;;20.73;8.40;;;;;;;;;;4993327;28;20097;-81
2023/07/03 01:39:43;;;;;;;20.33;8.07;;;;;;;;;;5011405;28;20050;-81
2023/07/03 01:42:11;;;;;;;22.65;8.98;;;;;;;;;;5011950;28;20038;-81
2023/07/03 01:44:38;;;;;;;20.77;8.75;;;;;;;;;;5007289;28;20063;-83
2023/07/03 01:47:07;;;;;;;19.48;8.48;;;;;;;;;;5005156;28;20398;-83
2023/07/03 01:49:34;;;;;;;18.35;7.60;;;;;;;;;;5026329;28;20099;-82
2023/07/03 01:52:03;;;;;;;20.27;8.55;;;;;;;;;;5024610;28;20096;-82
2023/07/03 01:54:40;;;;;;;18.50;8.15;;;;;;;;;;5040759;28;20109;-84
2023/07/03 01:57:07;;;;;;;19.90;8.38;;;;;;;;;;5030665;28;20053;-83
2023/07/03 01:59:34;;;;;;;16.90;7.70;;;;;;;;;;5021708;28;20072;-84
2023/07/03 02:02:10;;;;;;;22.92;8.65;;;;;;;;;;5023583;28;20049;-83
2023/07/03 02:04:37;;;;;;;19.02;8.00;;;;;;;;;;5023306;28;20068;-82
2023/07/03 02:07:05;;;;;;;18.92;8.32;;;;;;;;;;5023939;28;20452;-82
2023/07/03 02:09:32;;;;;;;20.60;8.73;;;;;;;;;;5026251;28;20041;-84
2023/07/03 02:12:03;;;;;;;21.70;8.85;;;;;;;;;;5026274;28;20064;-82
2023/07/03 02:14:30;;;;;;;18.35;7.95;;;;;;;;;;5026772;28;20440;-82
2023/07/03 02:16:57;;;;;;;19.33;8.45;;;;;;;;;;5008741;28;20047;-82
2023/07/03 02:19:28;;;;;;;20.27;8.55;;;;;;;;;;5023729;28;20227;-84
2023/07/03 02:21:56;;;;;;;21.35;8.57;;;;;;;;;;5024498;28;20044;-83
2023/07/03 02:24:22;;;;;;;23.55;8.55;;;;;;;;;;5024414;28;20061;-84
2023/07/03 02:26:50;;;;;;;19.52;7.47;;;;;;;;;;5019482;28;20045;-81
2023/07/03 02:29:17;;;;;;;24.73;9.00;;;;;;;;;;5015284;28;20570;-83
2023/07/03 02:31:44;;;;;;;20.63;8.93;;;;;;;;;;5014166;28;20042;-82
2023/07/03 02:34:11;;;;;;;20.88;9.23;;;;;;;;;;5033664;28;20041;-82
2023/07/03 02:36:38;;;;;;;20.67;8.63;;;;;;;;;;5015138;28;20065;-82
2023/07/03 02:39:07;;;;;;;21.85;9.60;;;;;;;;;;5018140;28;20038;-82
2023/07/03 02:41:34;;;;;;;21.58;9.13;;;;;;;;;;5018201;28;20052;-82
2023/07/03 02:44:00;;;;;;;25.85;10.15;;;;;;;;;;4992646;28;20065;-83
2023/07/03 02:46:30;;;;;;;21.80;9.98;;;;;;;;;;5023928;28;20049;-83
2023/07/03 02:48:56;;;;;;;21.63;9.57;;;;;;;;;;5002518;28;20042;-83
2023/07/03 02:51:23;;;;;;;21.05;8.93;;;;;;;;;;5018188;28;20042;-83
2023/07/03 02:53:53;;;;;;;17.35;8.80;;;;;;;;;;5020712;28;20124;-84
2023/07/03 02:56:20;;;;;;;26.40;9.45;;;;;;;;;;5021634;28;20053;-84
2023/07/03 02:58:47;;;;;;;23.27;9.40;;;;;;;;;;5021656;28;20067;-83
2023/07/03 03:01:19;;;;;;;23.35;9.38;;;;;;;;;;5003872;28;20119;-81
2023/07/03 03:03:47;;;;;;;18.52;9.02;;;;;;;;;;5026229;28;20033;-85
2023/07/03 03:06:14;;;;;;;24.88;9.63;;;;;;;;;;5014196;28;20045;-84
2023/07/03 03:08:42;;;;;;;23.10;9.93;;;;;;;;;;5030459;28;20045;-86
2023/07/03 03:11:09;;;;;;;21.75;8.95;;;;;;;;;;5029485;28;20147;-84
2023/07/03 03:13:35;;;;;;;23.10;9.98;;;;;;;;;;5011351;28;20079;-84
2023/07/03 03:16:02;;;;;;;24.83;10.07;;;;;;;;;;5020861;28;20054;-84
2023/07/03 03:18:29;;;;;;;24.65;9.85;;;;;;;;;;5025703;28;20048;-86
2023/07/03 03:20:56;;;;;;;23.38;9.50;;;;;;;;;;5010867;28;20044;-83
2023/07/03 03:23:23;;;;;;;22.45;9.98;;;;;;;;;;5007506;28;20059;-84
2023/07/03 03:25:49;;;;;;;22.17;9.95;;;;;;;;;;5033591;28;20124;-83
2023/07/03 03:28:16;;;;;;;21.50;8.85;;;;;;;;;;5038878;28;20064;-82
2023/07/03 03:30:43;;;;;;;24.42;9.93;;;;;;;;;;5024915;28;20050;-81
2023/07/03 03:33:10;;;;;;;22.67;9.90;;;;;;;;;;5005139;28;20041;-81
2023/07/03 03:35:36;;;;;;;22.02;9.70;;;;;;;;;;5026469;28;20041;-83
2023/07/03 03:38:04;;;;;;;25.48;9.88;;;;;;;;;;5026344;28;20057;-83
2023/07/03 03:40:31;;;;;;;23.45;9.90;;;;;;;;;;5024098;28;20045;-84
2023/07/03 03:42:58;;;;;;;27.45;9.88;;;;;;;;;;5021207;28;20116;-83
2023/07/03 03:45:25;;;;;;;24.38;10.40;;;;;;;;;;5018560;28;20045;-83
2023/07/03 03:47:52;;;;;;;26.20;10.30;;;;;;;;;;5004894;28;20041;-83
2023/07/03 03:50:19;;;;;;;26.15;9.93;;;;;;;;;;5022943;28;20505;-84
2023/07/03 03:52:46;;;;;;;21.77;9.43;;;;;;;;;;5021268;28;20045;-85
2023/07/03 03:55:14;;;;;;;23.67;9.32;;;;;;;;;;5005611;28;20057;-82
2023/07/03 03:57:40;;;;;;;21.25;9.20;;;;;;;;;;5006006;28;20546;-83
2023/07/03 04:00:15;;;;;;;26.67;10.15;;;;;;;;;;5015097;28;20080;-82
2023/07/03 04:02:43;;;;;;;;;;;;;;;;;;4986564;28;20418;-82
2023/07/03 04:05:09;;;;;;;23.17;9.07;;;;;;;;;;5026775;28;19956;-81
2023/07/03 04:07:39;;;;;;;21.42;9.65;;;;;;;;;;5021649;28;20077;-81
2023/07/03 04:10:06;;;;;;;25.77;10.05;;;;;;;;;;5021973;28;20045;-85
2023/07/03 04:12:32;;;;;;;28.48;10.55;;;;;;;;;;5038122;28;20068;-82
2023/07/03 04:15:00;;;;;;;22.80;9.13;;;;;;;;;;4999632;28;20045;-82
2023/07/03 04:17:26;;;;;;;26.00;10.57;;;;;;;;;;5012322;28;20121;-80
2023/07/03 04:19:54;;;;;;;28.05;9.77;;;;;;;;;;5012101;28;20434;-82
2023/07/03 04:22:20;;;;;;;26.45;10.20;;;;;;;;;;4997560;28;20137;-80
2023/07/03 04:24:47;;;;;;;25.27;9.70;;;;;;;;;;5014105;28;20385;-83
2023/07/03 04:27:14;;;;;;;26.38;9.90;;;;;;;;;;5035816;28;20124;-79
2023/07/03 04:29:41;;;;;;;26.10;9.80;;;;;;;;;;5011703;28;20045;-81
2023/07/03 04:32:08;;;;;;;27.13;9.68;;;;;;;;;;5012999;28;20065;-83
2023/07/03 04:34:35;;;;;;;25.13;9.95;;;;;;;;;;5011529;28;20057;-84
2023/07/03 04:37:03;;;;;;;26.98;10.00;;;;;;;;;;5017912;28;20045;-83
2023/07/03 04:39:31;;;;;;;23.42;9.18;;;;;;;;;;5034386;28;20068;-85
2023/07/03 04:42:00;;;;;;;32.67;10.55;;;;;;;;;;5016101;28;20049;-81
2023/07/03 04:44:27;;;;;;;25.05;9.63;;;;;;;;;;5021107;28;20082;-84
2023/07/03 04:47:04;;;;;;;23.92;9.23;;;;;;;;;;5012326;28;20124;-80
2023/07/03 04:49:32;;;;;;;29.40;11.00;;;;;;;;;;5012122;28;20056;-84
2023/07/03 04:51:59;;;;;;;27.77;11.20;;;;;;;;;;5014040;28;20045;-82
2023/07/03 04:54:29;;;;;;;27.45;9.65;;;;;;;;;;5014930;28;20042;-81
2023/07/03 04:56:56;;;;;;;22.85;9.38;;;;;;;;;;5012239;28;20065;-82
2023/07/03 04:59:22;;;;;;;24.80;10.10;;;;;;;;;;5018613;28;20065;-82
2023/07/03 05:01:49;;;;;;;27.92;10.02;;;;;;;;;;5009713;28;20042;-85
2023/07/03 05:04:16;;;;;;;28.55;9.85;;;;;;;;;;5021290;28;20049;-81
2023/07/03 05:06:42;;;;;;;24.15;9.77;;;;;;;;;;4991105;28;20068;-83
2023/07/03 05:09:09;;;;;;;27.30;10.32;;;;;;;;;;5008653;28;20545;-83
2023/07/03 05:11:35;;;;;;;22.30;9.63;;;;;;;;;;5018196;28;20160;-84
2023/07/03 05:14:02;;;;;;;23.38;9.40;;;;;;;;;;5030631;28;20128;-80
2023/07/03 05:16:29;;;;;;;26.00;9.63;;;;;;;;;;5042660;28;20036;-84
2023/07/03 05:18:56;;;;;;;24.77;10.23;;;;;;;;;;5065940;28;20371;-83
2023/07/03 05:21:22;;;;;;;21.63;8.88;;;;;;;;;;5045057;28;20076;-84
2023/07/03 05:23:49;;;;;;;19.48;9.30;;;;;;;;;;5054919;28;20044;-83
2023/07/03 05:26:15;;;;;;;29.40;9.25;;;;;;;;;;5033707;28;20056;-81
2023/07/03 05:28:42;;;;;;;25.60;9.07;;;;;;;;;;5035060;28;20049;-82
2023/07/03 05:31:08;;;;;;;22.60;9.10;;;;;;;;;;5036573;28;20048;-82
2023/07/03 05:33:35;;;;;;;23.90;9.13;;;;;;;;;;5037405;28;20406;-82
2023/07/03 05:36:02;;;;;;;23.75;9.55;;;;;;;;;;5039726;28;20068;-82
2023/07/03 05:38:28;;;;;;;25.52;9.40;;;;;;;;;;5059693;28;20557;-82
2023/07/03 05:40:55;;;;;;;24.63;8.30;;;;;;;;;;5028059;28;20141;-85
2023/07/03 05:43:22;;;;;;;24.83;9.73;;;;;;;;;;5018466;28;20049;-83
2023/07/03 05:45:48;;;;;;;24.40;9.45;;;;;;;;;;5015473;28;20545;-83
2023/07/03 05:48:16;;;;;;;22.60;8.85;;;;;;;;;;5027350;28;20110;-84
2023/07/03 05:50:43;;;;;;;26.92;9.43;;;;;;;;;;5030136;28;20125;-85
2023/07/03 05:53:10;;;;;;;21.52;7.95;;;;;;;;;;5009807;28;20069;-83
2023/07/03 05:55:37;;;;;;;21.88;8.68;;;;;;;;;;5026243;28;20046;-83
2023/07/03 05:58:04;;;;;;;24.40;8.82;;;;;;;;;;5013061;28;20564;-84
2023/07/03 06:00:31;;;;;;;21.20;8.25;;;;;;;;;;4995967;28;20053;-83
2023/07/03 06:03:00;;;;;;;24.50;8.60;;;;;;;;;;5031437;28;20420;-82
2023/07/03 06:05:27;;;;;;;23.38;7.90;;;;;;;;;;5012253;28;20483;-82
2023/07/03 06:07:53;;;;;;;19.58;7.95;;;;;;;;;;5007850;28;20224;-81
2023/07/03 06:10:20;;;;;;;26.33;7.88;;;;;;;;;;5022558;28;21026;-82
2023/07/03 06:12:46;;;;;;;18.52;7.63;;;;;;;;;;5042782;28;20045;-85
2023/07/03 06:15:13;;;;;;;22.27;8.35;;;;;;;;;;5010692;28;20045;-84
2023/07/03 06:17:40;;;;;;;27.80;8.98;;;;;;;;;;5025762;28;20105;-83
2023/07/03 06:20:08;;;;;;;19.98;8.35;;;;;;;;;;5044458;28;20046;-83
2023/07/03 06:22:34;;;;;;;19.90;8.07;;;;;;;;;;5021865;28;20467;-85
2023/07/03 06:25:01;;;;;;;17.63;7.55;;;;;;;;;;5027175;28;20106;-84
2023/07/03 06:27:27;;;;;;;24.23;8.98;;;;;;;;;;5027599;28;20518;-83
2023/07/03 06:29:56;;;;;;;23.70;8.90;;;;;;;;;;5011823;28;20068;-86
2023/07/03 06:32:23;;;;;;;26.10;9.63;;;;;;;;;;5026872;28;20041;-83
2023/07/03 06:34:50;;;;;;;21.05;7.38;;;;;;;;;;5029270;28;20516;-84
2023/07/03 06:37:17;;;;;;;20.58;8.02;;;;;;;;;;5028464;28;20167;-85
2023/07/03 06:39:43;;;;;;;21.27;8.88;;;;;;;;;;5018433;28;20057;-84
2023/07/03 06:42:10;;;;;;;20.17;8.38;;;;;;;;;;5046391;28;20053;-84
2023/07/03 06:44:43;;;;;;;19.48;8.50;;;;;;;;;;5028543;28;20133;-84
2023/07/03 06:47:10;;;;;;;21.98;8.40;;;;;;;;;;4994699;28;20042;-82
2023/07/03 06:49:37;;;;;;;25.13;8.77;;;;;;;;;;5019563;28;20041;-84
2023/07/03 06:52:03;;;;;;;23.27;7.88;;;;;;;;;;5049344;28;20045;-87
2023/07/03 06:54:31;;;;;;;21.15;8.07;;;;;;;;;;5051046;28;20045;-86
2023/07/03 06:56:57;;;;;;;21.65;7.60;;;;;;;;;;5045261;28;20049;-82
2023/07/03 06:59:24;;;;;;;18.70;7.07;;;;;;;;;;5036037;28;20407;-82
2023/07/03 07:01:50;;;;;;;22.00;7.20;;;;;;;;;;5038029;28;20087;-83
2023/07/03 07:04:17;;;;;;;22.25;7.18;;;;;;;;;;5037540;28;20513;-87
2023/07/03 07:06:44;;;;;;;18.50;7.53;;;;;;;;;;5040693;28;20041;-82
2023/07/03 07:09:10;;;;;;;18.33;7.55;;;;;;;;;;5041968;28;20225;-81
2023/07/03 07:11:37;;;;;;;19.80;7.43;;;;;;;;;;5042929;28;20037;-81
2023/07/03 07:14:05;;;;;;;24.77;7.95;;;;;;;;;;5043150;28;20212;-83
2023/07/03 07:16:34;;;;;;;21.00;7.15;;;;;;;;;;5036120;28;20132;-84
2023/07/03 07:19:02;;;;;;;22.08;7.03;;;;;;;;;;5030084;28;20029;-84
2023/07/03 07:21:30;;;;;;;19.85;6.85;;;;;;;;;;5033488;28;20155;-83
2023/07/03 07:23:58;;;;;;;24.80;7.72;;;;;;;;;;5032385;28;20037;-83
2023/07/03 07:26:30;;;;;;;17.20;6.40;;;;;;;;;;5030912;28;20052;-82
2023/07/03 07:28:57;;;;;;;16.52;6.53;;;;;;;;;;5028076;28;20052;-82
2023/07/03 07:31:24;;;;;;;18.80;5.90;;;;;;;;;;5017813;28;20049;-82
2023/07/03 07:33:51;;;;;;;20.13;5.65;;;;;;;;;;5040292;28;20041;-82
2023/07/03 07:36:19;;;;;;;15.52;5.38;;;;;;;;;;5020034;28;20041;-85
2023/07/03 07:38:48;;;;;;;17.63;5.72;;;;;;;;;;5038561;28;20109;-81
2023/07/03 07:41:14;;;;;;;12.57;4.90;;;;;;;;;;5022057;28;20060;-83
2023/07/03 07:43:41;;;;;;;11.63;4.63;;;;;;;;;;5030678;28;20049;-85
2023/07/03 07:46:07;;;;;;;13.93;4.80;;;;;;;;;;5015947;28;20101;-81
2023/07/03 07:48:34;;;;;;;17.77;5.13;;;;;;;;;;5016344;28;20049;-84
2023/07/03 07:51:06;;;;;;;16.70;5.03;;;;;;;;;;5020573;28;20112;-86
2023/07/03 07:53:32;;;;;;;13.02;4.93;;;;;;;;;;5024719;28;20046;-87
2023/07/03 07:55:59;;;;;;;17.15;5.15;;;;;;;;;;5023002;28;20142;-85
2023/07/03 07:58:26;;;;;;;19.02;5.78;;;;;;;;;;5025903;28;20274;-84
2023/07/03 08:00:53;;;;;;;14.73;5.40;;;;;;;;;;5032286;28;20109;-87
2023/07/03 08:03:19;;;;;;;15.48;5.57;;;;;;;;;;5047960;28;20041;-85
2023/07/03 08:05:47;;;;;;;17.25;5.80;;;;;;;;;;5045565;28;20049;-87
2023/07/03 08:08:14;;;;;;;17.45;6.22;;;;;;;;;;5047903;28;20094;-84
2023/07/03 08:10:41;;;;;;;13.35;5.82;;;;;;;;;;5030878;28;20061;-83
2023/07/03 08:13:07;;;;;;;19.38;6.72;;;;;;;;;;5064344;28;20048;-82
2023/07/03 08:15:34;;;;;;;16.27;5.95;;;;;;;;;;5028788;28;20071;-84
2023/07/03 08:18:01;;;;;;;15.02;5.35;;;;;;;;;;5044687;28;20052;-88
2023/07/03 08:20:28;;;;;;;15.65;5.82;;;;;;;;;;5029901;28;20065;-84
2023/07/03 08:22:54;;;;;;;15.50;5.30;;;;;;;;;;5062273;28;20055;-85
2023/07/03 08:25:21;;;;;;;16.67;6.07;;;;;;;;;;5045335;28;20053;-87
2023/07/03 08:27:48;;;;;;;23.00;6.13;;;;;;;;;;5030602;28;20557;-85
2023/07/03 08:30:14;;;;;;;14.40;4.75;;;;;;;;;;5028756;28;20049;-83
2023/07/03 08:32:43;;;;;;;15.23;5.40;;;;;;;;;;5038150;28;20041;-84
2023/07/03 08:35:10;;;;;;;15.05;5.45;;;;;;;;;;5041063;28;20045;-84
2023/07/03 08:37:39;;;;;;;16.20;5.20;;;;;;;;;;5041427;28;20037;-90
2023/07/03 08:40:07;;;;;;;16.80;4.78;;;;;;;;;;5023483;28;20543;-85
2023/07/03 08:42:46;;;;;;;16.77;5.28;;;;;;;;;;5029790;28;20503;-85
2023/07/03 08:45:14;;;;;;;11.35;4.95;;;;;;;;;;4997900;28;20050;-88
2023/07/03 08:47:41;;;;;;;18.00;6.15;;;;;;;;;;5010261;28;20052;-85
2023/07/03 08:50:10;;;;;;;17.27;5.32;;;;;;;;;;5043275;28;20049;-88
2023/07/03 08:52:47;;;;;;;18.15;4.90;;;;;;;;;;5045449;28;20041;-88
2023/07/03 08:55:17;;;;;;;15.52;4.78;;;;;;;;;;5064976;28;20068;-85
2023/07/03 08:57:43;;;;;;;16.92;4.68;;;;;;;;;;5038156;28;20045;-86
2023/07/03 09:00:11;;;;;;;15.70;4.65;;;;;;;;;;5022822;28;20100;-86
2023/07/03 09:02:43;;;;;;;16.08;5.10;;;;;;;;;;5008956;28;20050;-87
2023/07/03 09:05:20;;;;;;;13.05;4.57;;;;;;;;;;5026409;28;20046;-85
2023/07/03 09:07:55;;;;;;;12.35;4.78;;;;;;;;;;5028350;28;20628;-82
2023/07/03 09:10:22;;;;;;;19.27;5.00;;;;;;;;;;5034019;28;20045;-84
2023/07/03 09:12:52;;;;;;;13.45;4.68;;;;;;;;;;5013815;28;20041;-83
2023/07/03 09:15:18;;;;;;;10.90;4.43;;;;;;;;;;5006770;28;20198;-84
2023/07/03 09:17:46;;;;;;;14.27;4.65;;;;;;;;;;5034577;28;20117;-86
2023/07/03 09:20:13;;;;;;;18.73;5.13;;;;;;;;;;5023422;28;20505;-83
2023/07/03 09:22:42;;;;;;;13.60;4.38;;;;;;;;;;5006909;28;20076;-83
2023/07/03 09:25:12;;;;;;;13.48;4.38;;;;;;;;;;5007476;28;20057;-86
2023/07/03 09:27:41;;;;;;;14.80;5.05;;;;;;;;;;5045540;28;20056;-86
2023/07/03 09:30:11;;;;;;;11.98;4.13;;;;;;;;;;5038865;28;20057;-87
2023/07/03 09:32:39;;;;;;;16.63;5.07;;;;;;;;;;5025945;28;20060;-89
2023/07/03 09:35:10;;;;;;;14.02;4.68;;;;;;;;;;5024700;28;20076;-86
2023/07/03 09:37:38;;;;;;;16.23;4.72;;;;;;;;;;5009570;28;20042;-87
2023/07/03 09:40:09;;;;;;;14.23;4.47;;;;;;;;;;5044359;28;20056;-83
2023/07/03 09:42:36;;;;;;;13.27;4.50;;;;;;;;;;5023613;28;20064;-88
2023/07/03 09:45:11;;;;;;;12.52;4.57;;;;;;;;;;5018620;28;20056;-84
2023/07/03 09:47:37;;;;;;;12.88;4.43;;;;;;;;;;5022816;28;20049;-84
2023/07/03 09:50:05;;;;;;;12.27;4.28;;;;;;;;;;5013789;28;20034;-86
2023/07/03 09:52:33;;;;;;;15.43;4.10;;;;;;;;;;5029800;28;20050;-85
2023/07/03 09:55:02;;;;;;;11.80;4.65;;;;;;;;;;5012869;28;20037;-83
2023/07/03 09:57:28;;;;;;;13.10;3.88;;;;;;;;;;5033112;28;20072;-85
2023/07/03 10:00:10;;;;;;;14.32;4.47;;;;;;;;;;5025560;28;20046;-83
2023/07/03 10:02:38;;;;;;;14.43;4.40;;;;;;;;;;5041521;28;20097;-85
2023/07/03 10:05:11;;;;;;;14.23;4.25;;;;;;;;;;5028208;28;20109;-84
2023/07/03 10:07:43;;;;;;;14.45;4.15;;;;;;;;;;5067888;28;20045;-87
2023/07/03 10:10:16;;;;;;;17.30;4.82;;;;;;;;;;5013604;28;20052;-84
2023/07/03 10:12:50;;;;;;;12.52;4.55;;;;;;;;;;5016903;28;20076;-82
2023/07/03 10:15:20;;;;;;;14.18;4.55;;;;;;;;;;5012973;28;20049;-84
2023/07/03 10:17:46;;;;;;;15.20;4.97;;;;;;;;;;5007843;28;20042;-83
2023/07/03 10:20:16;;;;;;;14.18;4.72;;;;;;;;;;5017666;28;20060;-82
2023/07/03 10:22:44;;;;;;;15.40;4.68;;;;;;;;;;5009087;28;20077;-77
2023/07/03 10:25:15;;;;;;;16.73;4.40;;;;;;;;;;5016540;28;20127;-83
2023/07/03 10:27:42;;;;;;;13.60;4.43;;;;;;;;;;5005780;28;20065;-84
2023/07/03 10:30:11;;;;;;;11.82;4.28;;;;;;;;;;5021742;28;20041;-83
2023/07/03 10:32:39;;;;;;;14.60;4.88;;;;;;;;;;5017034;28;20068;-85
2023/07/03 10:35:10;;;;;;;15.57;4.70;;;;;;;;;;5002672;28;20042;-84
2023/07/03 10:37:43;;;;;;;11.98;4.50;;;;;;;;;;5003851;28;20433;-85
2023/07/03 10:40:18;;;;;;;16.00;4.32;;;;;;;;;;5036805;28;20065;-83
2023/07/03 10:42:48;;;;;;;14.87;4.30;;;;;;;;;;5028605;28;20053;-87
2023/07/03 10:45:15;;;;;;;13.95;4.75;;;;;;;;;;5020404;28;20264;-82
2023/07/03 10:47:56;;;;;;;15.68;4.80;;;;;;;;;;5022781;28;20109;-83
2023/07/03 10:50:36;;;;;;;10.43;4.35;;;;;;;;;;5021573;28;20053;-85
2023/07/03 10:53:25;;;;;;;11.95;4.28;;;;;;;;;;5032204;28;20408;-83
2023/07/03 10:55:58;;;;;;;17.23;5.90;;;;;;;;;;5030358;28;20120;-82
2023/07/03 10:58:38;;;;;;;14.50;4.68;;;;;;;;;;5008917;28;20041;-80
2023/07/03 11:01:25;;;;;;;13.27;4.18;;;;;;;;;;5032928;28;20064;-83
2023/07/03 11:03:55;;;;;;;12.43;4.88;;;;;;;;;;5024273;28;20072;-84
2023/07/03 11:07:00;;;;;;;13.30;4.82;;;;;;;;;;4996779;28;20048;-83
2023/07/03 11:09:33;;;;;;;11.03;4.20;;;;;;;;;;5004752;28;20052;-83
2023/07/03 11:12:19;;;;;;;12.23;4.28;;;;;;;;;;5007615;28;20056;-82
2023/07/03 11:15:32;;;;;;;13.23;3.97;;;;;;;;;;5012768;28;20044;-83
2023/07/03 11:18:04;;;;;;;12.02;3.97;;;;;;;;;;4992311;28;20434;-82
2023/07/03 11:20:41;;;;;;;12.65;4.35;;;;;;;;;;5024982;28;20038;-88
2023/07/03 11:23:43;;;;;;;9.98;3.88;;;;;;;;;;5013093;28;20046;-82
2023/07/03 11:26:15;;;;;;;16.08;4.57;;;;;;;;;;4975247;28;20042;-82
2023/07/03 11:28:48;;;;;;;16.55;4.45;;;;;;;;;;5019224;28;20061;-81
2023/07/03 11:31:15;;;;;;;11.80;4.13;;;;;;;;;;5014135;28;20064;-83
2023/07/03 11:33:43;;;;;;;11.00;4.57;;;;;;;;;;5039323;28;20049;-82
2023/07/03 11:36:31;;;;;;;9.43;4.00;;;;;;;;;;5013463;28;20273;-79
2023/07/03 11:39:20;;;;;;;15.63;4.25;;;;;;;;;;5012979;28;20045;-81
2023/07/03 11:42:10;;;;;;;15.65;4.25;;;;;;;;;;5042679;28;20045;-79
2023/07/03 11:44:42;;;;;;;14.18;4.30;;;;;;;;;;5029908;28;20048;-81
2023/07/03 11:47:23;;;;;;;11.32;4.07;;;;;;;;;;5036256;28;20060;-82
2023/07/03 11:49:53;;;;;;;12.40;4.80;;;;;;;;;;5014055;28;20289;-80
2023/07/03 11:52:42;;;;;;;14.80;4.82;;;;;;;;;;5022659;28;20050;-80
2023/07/03 11:55:10;;;;;;;13.75;4.32;;;;;;;;;;5002594;28;20056;-83
2023/07/03 11:57:38;;;;;;;11.40;4.13;;;;;;;;;;4995724;28;20524;-83
2023/07/03 12:00:27;;;;;;;13.82;4.63;;;;;;;;;;4995848;28;20045;-82
2023/07/03 12:02:56;;;;;;;15.95;4.18;;;;;;;;;;4998819;28;20052;-81
2023/07/03 12:05:41;;;;;;;13.73;4.38;;;;;;;;;;5012256;28;20049;-80
2023/07/03 12:08:11;;;;;;;14.15;4.68;;;;;;;;;;5022440;28;20046;-80
2023/07/03 12:10:40;;;;;;;17.42;4.90;;;;;;;;;;5005767;28;20057;-83
2023/07/03 12:13:46;;;;;;;13.43;3.65;;;;;;;;;;5005618;28;20513;-80
2023/07/03 12:16:17;;;;;;;12.53;3.80;;;;;;;;;;4897571;29;20060;-80
2023/07/03 12:18:44;;;;;;;12.65;4.07;;;;;;;;;;4898352;29;20192;-82
2023/07/03 12:21:12;;;;;;;10.00;4.13;;;;;;;;;;4947425;28;20049;-79
2023/07/03 12:23:41;;;;;;;12.10;4.07;;;;;;;;;;5001421;28;20042;-81
2023/07/03 12:26:09;;;;;;;12.40;4.32;;;;;;;;;;5019668;28;20147;-80
2023/07/03 12:28:37;;;;;;;12.95;4.13;;;;;;;;;;5018385;28;20061;-83
2023/07/03 12:31:12;;;;;;;13.23;4.53;;;;;;;;;;5034511;28;20420;-80
2023/07/03 12:33:52;;;;;;;12.90;4.20;;;;;;;;;;5021594;28;20048;-79
2023/07/03 12:36:23;;;;;;;11.50;3.97;;;;;;;;;;5021545;28;20049;-80
2023/07/03 12:38:50;;;;;;;11.27;4.40;;;;;;;;;;5037349;28;20045;-81
2023/07/03 12:41:25;;;;;;;11.68;4.38;;;;;;;;;;5017057;28;20057;-79
2023/07/03 12:43:52;;;;;;;11.48;3.80;;;;;;;;;;5014715;28;20057;-80
2023/07/03 12:46:34;;;;;;;13.13;3.58;;;;;;;;;;5003374;28;20059;-80
2023/07/03 12:49:07;;;;;;;10.18;3.70;;;;;;;;;;5005617;28;20482;-81
2023/07/03 12:51:38;;;;;;;10.63;3.72;;;;;;;;;;5034433;28;20065;-80
2023/07/03 12:54:06;;;;;;;8.98;3.15;;;;;;;;;;5037001;28;20436;-81
2023/07/03 12:56:33;;;;;;;9.30;3.70;;;;;;;;;;5023333;28;20037;-81
2023/07/03 12:59:00;;;;;;;10.50;3.92;;;;;;;;;;5015034;28;20055;-81
2023/07/03 13:01:27;;;;;;;11.68;3.78;;;;;;;;;;5012895;28;20525;-79
2023/07/03 13:03:53;;;;;;;9.98;3.60;;;;;;;;;;5034011;28;20037;-79
2023/07/03 13:06:27;;;;;;;9.30;3.65;;;;;;;;;;5018387;28;20049;-79
2023/07/03 13:08:55;;;;;;;10.23;3.72;;;;;;;;;;5020785;28;20042;-81
2023/07/03 13:11:45;;;;;;;9.55;3.28;;;;;;;;;;5038210;28;20064;-80
2023/07/03 13:14:15;;;;;;;12.25;3.63;;;;;;;;;;5024299;28;20454;-82
2023/07/03 13:16:42;;;;;;;15.13;3.75;;;;;;;;;;5021270;28;20506;-80
2023/07/03 13:19:09;;;;;;;11.98;3.40;;;;;;;;;;5038542;28;20434;-84
2023/07/03 13:21:37;;;;;;;13.05;3.40;;;;;;;;;;5036932;28;20186;-83
2023/07/03 13:24:08;;;;;;;11.73;3.00;;;;;;;;;;5039398;28;20506;-79
2023/07/03 13:26:36;;;;;;;11.20;3.42;;;;;;;;;;4998480;28;20053;-84
2023/07/03 13:29:03;;;;;;;9.32;3.17;;;;;;;;;;5032903;28;20133;-86
2023/07/03 13:31:31;;;;;;;9.82;3.15;;;;;;;;;;5014016;28;20041;-83
2023/07/03 13:34:19;;;;;;;8.70;3.20;;;;;;;;;;5012279;28;20052;-83
2023/07/03 13:36:53;;;;;;;11.82;3.33;;;;;;;;;;5013021;28;20046;-84
2023/07/03 13:39:20;;;;;;;11.82;3.25;;;;;;;;;;5014596;28;20046;-82
2023/07/03 13:41:48;;;;;;;8.50;2.38;;;;;;;;;;5018989;28;20045;-82
2023/07/03 13:44:16;;;;;;;9.15;2.92;;;;;;;;;;5029649;28;20137;-81
2023/07/03 13:46:43;;;;;;;9.07;2.90;;;;;;;;;;5014587;28;20049;-82
2023/07/03 13:49:11;;;;;;;7.75;2.85;;;;;;;;;;5009531;28;20045;-85
2023/07/03 13:51:39;;;;;;;11.20;2.97;;;;;;;;;;5033271;28;20049;-80
2023/07/03 13:54:07;;;;;;;11.40;3.17;;;;;;;;;;5011715;28;20592;-84
2023/07/03 13:56:39;;;;;;;9.80;2.83;;;;;;;;;;5008097;28;20503;-83
2023/07/03 13:59:06;;;;;;;10.98;2.58;;;;;;;;;;5019622;28;20124;-82
2023/07/03 14:01:33;;;;;;;8.45;2.72;;;;;;;;;;5028681;28;20075;-82
2023/07/03 14:04:00;;;;;;;9.38;3.13;;;;;;;;;;5035809;28;20506;-82
2023/07/03 14:06:27;;;;;;;6.15;2.22;;;;;;;;;;5015078;28;20386;-83
2023/07/03 14:08:54;;;;;;;8.45;2.67;;;;;;;;;;5005911;28;20088;-83
2023/07/03 14:11:20;;;;;;;8.00;2.80;;;;;;;;;;5020694;28;20391;-83
2023/07/03 14:13:49;;;;;;;6.95;2.35;;;;;;;;;;5034552;28;20108;-84
2023/07/03 14:16:15;;;;;;;9.55;2.80;;;;;;;;;;5012200;28;20057;-83
2023/07/03 14:18:42;;;;;;;9.82;2.75;;;;;;;;;;5018698;28;20486;-82
2023/07/03 14:21:13;;;;;;;6.18;1.98;;;;;;;;;;5007697;28;20042;-85
2023/07/03 14:23:40;;;;;;;4.00;2.00;;;;;;;;;;5010128;28;20034;-83
2023/07/03 14:26:09;;;;;;;7.40;2.50;;;;;;;;;;5001435;28;20073;-81
2023/07/03 14:28:37;;;;;;;10.38;2.72;;;;;;;;;;5014460;28;20144;-84
2023/07/03 14:31:04;;;;;;;7.93;2.28;;;;;;;;;;4997430;28;20133;-84
2023/07/03 14:33:31;;;;;;;8.52;2.67;;;;;;;;;;5018721;28;20105;-80
2023/07/03 14:35:57;;;;;;;9.38;2.88;;;;;;;;;;5017562;28;20471;-84
2023/07/03 14:38:24;;;;;;;6.72;2.33;;;;;;;;;;5022277;28;20049;-84
2023/07/03 14:40:51;;;;;;;8.43;2.60;;;;;;;;;;5034508;28;20030;-83
2023/07/03 14:43:17;;;;;;;9.70;2.45;;;;;;;;;;5049079;28;20044;-83
2023/07/03 14:45:44;;;;;;;9.20;2.15;;;;;;;;;;5033219;28;20054;-85